sensor_id;sensor_type;location;lat;lon;timestamp;pressure;altitude;pressure_sealevel;temperature;humidity
46682;BME280;34101;53.430;-2.224;2022-11-20T00:01:29;154589.50;;;8.49;100.00
46682;BME280;34101;53.430;-2.224;2022-11-20T00:03:57;154581.10;;;8.46;100.00
46682;BME280;34101;53.430;-2.224;2022-11-20T00:06:26;154589.17;;;8.49;100.00
46682;BME280;34101;53.430;-2.224;2022-11-20T00:08:54;154577.31;;;8.44;100.00
46682;BME280;34101;53.430;-2.224;2022-11-20T00:11:24;154570.04;;;8.41;100.00
46682;BME280;34101;53.430;-2.224;2022-11-20T00:13:54;154579.97;;;8.45;100.00
46682;BME280;34101;53.430;-2.224;2022-11-20T00:16:24;154572.79;;;8.43;100.00
46682;BME280;34101;53.430;-2.224;2022-11-20T00:18:51;154580.37;;;8.46;100.00
46682;BME280;34101;53.430;-2.224;2022-11-20T00:21:20;154579.73;;;8.45;100.00
46682;BME280;34101;53.430;-2.224;2022-11-20T00:23:48;154578.11;;;8.45;100.00
46682;BME280;34101;53.430;-2.224;2022-11-20T00:26:18;154584.90;;;8.47;100.00
46682;BME280;34101;53.430;-2.224;2022-11-20T00:28:50;154584.81;;;8.47;100.00
46682;BME280;34101;53.430;-2.224;2022-11-20T00:31:18;154583.85;;;8.47;100.00
46682;BME280;34101;53.430;-2.224;2022-11-20T00:33:45;154590.39;;;8.50;100.00
46682;BME280;34101;53.430;-2.224;2022-11-20T00:36:14;154598.06;;;8.53;100.00
46682;BME280;34101;53.430;-2.224;2022-11-20T00:38:43;154596.76;;;8.52;100.00
46682;BME280;34101;53.430;-2.224;2022-11-20T00:41:13;154564.31;;;8.39;100.00
46682;BME280;34101;53.430;-2.224;2022-11-20T00:43:40;154551.80;;;8.34;100.00
46682;BME280;34101;53.430;-2.224;2022-11-20T00:46:09;154534.44;;;8.27;100.00
46682;BME280;34101;53.430;-2.224;2022-11-20T00:48:36;154551.15;;;8.34;100.00
46682;BME280;34101;53.430;-2.224;2022-11-20T00:51:04;154564.63;;;8.39;100.00
46682;BME280;34101;53.430;-2.224;2022-11-20T00:53:31;154545.82;;;8.32;100.00
46682;BME280;34101;53.430;-2.224;2022-11-20T00:56:00;154500.37;;;8.13;100.00
46682;BME280;34101;53.430;-2.224;2022-11-20T00:58:30;154487.30;;;8.08;100.00
46682;BME280;34101;53.430;-2.224;2022-11-20T01:01:00;154470.03;;;8.01;100.00
46682;BME280;34101;53.430;-2.224;2022-11-20T01:03:30;154381.66;;;7.65;100.00
46682;BME280;34101;53.430;-2.224;2022-11-20T01:06:00;154416.36;;;7.79;100.00
46682;BME280;34101;53.430;-2.224;2022-11-20T01:08:29;154398.52;;;7.72;100.00
46682;BME280;34101;53.430;-2.224;2022-11-20T01:10:59;154358.50;;;7.56;100.00
46682;BME280;34101;53.430;-2.224;2022-11-20T01:13:26;154363.10;;;7.58;100.00
46682;BME280;34101;53.430;-2.224;2022-11-20T01:15:54;154335.42;;;7.47;100.00
46682;BME280;34101;53.430;-2.224;2022-11-20T01:18:21;154306.46;;;7.35;100.00
46682;BME280;34101;53.430;-2.224;2022-11-20T01:20:49;154294.84;;;7.30;100.00
46682;BME280;34101;53.430;-2.224;2022-11-20T01:23:16;154310.33;;;7.37;100.00
46682;BME280;34101;53.430;-2.224;2022-11-20T01:25:43;154289.11;;;7.28;100.00
46682;BME280;34101;53.430;-2.224;2022-11-20T01:28:11;154273.46;;;7.22;100.00
46682;BME280;34101;53.430;-2.224;2022-11-20T01:30:38;154268.62;;;7.20;100.00
46682;BME280;34101;53.430;-2.224;2022-11-20T01:33:06;154251.04;;;7.13;100.00
46682;BME280;34101;53.430;-2.224;2022-11-20T01:35:33;154245.63;;;7.11;100.00
46682;BME280;34101;53.430;-2.224;2022-11-20T01:38:00;154239.10;;;7.08;100.00
46682;BME280;34101;53.430;-2.224;2022-11-20T01:40:27;154232.57;;;7.05;100.00
46682;BME280;34101;53.430;-2.224;2022-11-20T01:43:14;154219.74;;;7.00;100.00
46682;BME280;34101;53.430;-2.224;2022-11-20T01:45:56;154220.39;;;7.00;100.00
46682;BME280;34101;53.430;-2.224;2022-11-20T01:48:28;154227.73;;;7.03;100.00
46682;BME280;34101;53.430;-2.224;2022-11-20T01:50:58;154221.35;;;7.01;100.00
46682;BME280;34101;53.430;-2.224;2022-11-20T01:53:28;154215.38;;;6.98;100.00
46682;BME280;34101;53.430;-2.224;2022-11-20T01:55:57;154223.93;;;7.02;100.00
46682;BME280;34101;53.430;-2.224;2022-11-20T01:58:30;154214.01;;;6.98;100.00
46682;BME280;34101;53.430;-2.224;2022-11-20T02:00:58;154219.50;;;7.00;100.00
46682;BME280;34101;53.430;-2.224;2022-11-20T02:03:26;154211.51;;;6.97;100.00
46682;BME280;34101;53.430;-2.224;2022-11-20T02:05:57;154210.55;;;6.96;100.00
46682;BME280;34101;53.430;-2.224;2022-11-20T02:08:26;154197.96;;;6.91;100.00
46682;BME280;34101;53.430;-2.224;2022-11-20T02:10:54;154189.98;;;6.88;100.00
46682;BME280;34101;53.430;-2.224;2022-11-20T02:13:21;154183.53;;;6.85;100.00
46682;BME280;34101;53.430;-2.224;2022-11-20T02:15:49;154179.25;;;6.84;100.00
46682;BME280;34101;53.430;-2.224;2022-11-20T02:18:19;154165.54;;;6.78;100.00
46682;BME280;34101;53.430;-2.224;2022-11-20T02:20:49;154167.64;;;6.79;100.00
46682;BME280;34101;53.430;-2.224;2022-11-20T02:23:25;154154.57;;;6.74;100.00
46682;BME280;34101;53.430;-2.224;2022-11-20T02:25:56;154167.56;;;6.79;100.00
46682;BME280;34101;53.430;-2.224;2022-11-20T02:28:25;154171.03;;;6.80;100.00
46682;BME280;34101;53.430;-2.224;2022-11-20T02:30:53;154175.86;;;6.82;100.00
46682;BME280;34101;53.430;-2.224;2022-11-20T02:33:20;154171.91;;;6.81;100.00
46682;BME280;34101;53.430;-2.224;2022-11-20T02:35:48;154189.58;;;6.88;100.00
46682;BME280;34101;53.430;-2.224;2022-11-20T02:38:15;154182.64;;;6.85;100.00
46682;BME280;34101;53.430;-2.224;2022-11-20T02:40:43;154171.75;;;6.81;100.00
46682;BME280;34101;53.430;-2.224;2022-11-20T02:43:10;154169.17;;;6.80;100.00
46682;BME280;34101;53.430;-2.224;2022-11-20T02:45:38;154170.62;;;6.80;100.00
46682;BME280;34101;53.430;-2.224;2022-11-20T02:48:06;154161.59;;;6.77;100.00
46682;BME280;34101;53.430;-2.224;2022-11-20T02:50:37;154154.09;;;6.74;100.00
46682;BME280;34101;53.430;-2.224;2022-11-20T02:53:04;154157.56;;;6.75;100.00
46682;BME280;34101;53.430;-2.224;2022-11-20T02:55:31;154139.09;;;6.68;100.00
46682;BME280;34101;53.430;-2.224;2022-11-20T02:57:59;154146.67;;;6.71;100.00
46682;BME280;34101;53.430;-2.224;2022-11-20T03:00:26;154152.15;;;6.73;100.00
46682;BME280;34101;53.430;-2.224;2022-11-20T03:02:54;154154.33;;;6.74;100.00
46682;BME280;34101;53.430;-2.224;2022-11-20T03:05:21;154159.41;;;6.76;100.00
46682;BME280;34101;53.430;-2.224;2022-11-20T03:07:48;154147.32;;;6.71;100.00
46682;BME280;34101;53.430;-2.224;2022-11-20T03:10:17;154150.30;;;6.72;100.00
46682;BME280;34101;53.430;-2.224;2022-11-20T03:12:45;154140.46;;;6.68;100.00
46682;BME280;34101;53.430;-2.224;2022-11-20T03:15:13;154139.41;;;6.68;100.00
46682;BME280;34101;53.430;-2.224;2022-11-20T03:17:40;154148.69;;;6.71;100.00
46682;BME280;34101;53.430;-2.224;2022-11-20T03:20:11;154150.95;;;6.72;100.00
46682;BME280;34101;53.430;-2.224;2022-11-20T03:22:38;154155.38;;;6.74;100.00
46682;BME280;34101;53.430;-2.224;2022-11-20T03:25:07;154151.67;;;6.73;100.00
46682;BME280;34101;53.430;-2.224;2022-11-20T03:27:35;154164.90;;;6.78;100.00
46682;BME280;34101;53.430;-2.224;2022-11-20T03:30:04;154161.19;;;6.76;100.00
46682;BME280;34101;53.430;-2.224;2022-11-20T03:32:32;154160.38;;;6.76;100.00
46682;BME280;34101;53.430;-2.224;2022-11-20T03:35:00;154185.95;;;6.86;100.00
46682;BME280;34101;53.430;-2.224;2022-11-20T03:37:28;154194.09;;;6.90;100.00
46682;BME280;34101;53.430;-2.224;2022-11-20T03:39:55;154182.48;;;6.85;100.00
46682;BME280;34101;53.430;-2.224;2022-11-20T03:42:24;154169.90;;;6.80;100.00
46682;BME280;34101;53.430;-2.224;2022-11-20T03:44:52;154180.95;;;6.84;100.00
46682;BME280;34101;53.430;-2.224;2022-11-20T03:47:21;154189.17;;;6.88;100.00
46682;BME280;34101;53.430;-2.224;2022-11-20T03:49:48;154189.66;;;6.88;100.00
46682;BME280;34101;53.430;-2.224;2022-11-20T03:52:16;154195.22;;;6.90;100.00
46682;BME280;34101;53.430;-2.224;2022-11-20T03:54:43;154204.42;;;6.94;100.00
46682;BME280;34101;53.430;-2.224;2022-11-20T03:57:12;154201.67;;;6.93;100.00
46682;BME280;34101;53.430;-2.224;2022-11-20T03:59:39;154190.79;;;6.88;100.00
46682;BME280;34101;53.430;-2.224;2022-11-20T04:02:08;154204.82;;;6.94;100.00
46682;BME280;34101;53.430;-2.224;2022-11-20T04:04:38;154212.48;;;6.97;100.00
46682;BME280;34101;53.430;-2.224;2022-11-20T04:07:06;154211.11;;;6.97;100.00
46682;BME280;34101;53.430;-2.224;2022-11-20T04:09:34;154214.50;;;6.98;100.00
46682;BME280;34101;53.430;-2.224;2022-11-20T04:12:03;154232.00;;;7.05;100.00
46682;BME280;34101;53.430;-2.224;2022-11-20T04:14:30;154203.45;;;6.94;100.00
46682;BME280;34101;53.430;-2.224;2022-11-20T04:16:58;154213.29;;;6.97;100.00
46682;BME280;34101;53.430;-2.224;2022-11-20T04:19:26;154233.29;;;7.06;100.00
46682;BME280;34101;53.430;-2.224;2022-11-20T04:21:54;154257.17;;;7.15;100.00
46682;BME280;34101;53.430;-2.224;2022-11-20T04:24:23;154274.35;;;7.22;100.00
46682;BME280;34101;53.430;-2.224;2022-11-20T04:26:50;154280.80;;;7.25;100.00
46682;BME280;34101;53.430;-2.224;2022-11-20T04:29:18;154265.72;;;7.19;100.00
46682;BME280;34101;53.430;-2.224;2022-11-20T04:31:46;154256.60;;;7.15;100.00
46682;BME280;34101;53.430;-2.224;2022-11-20T04:34:15;154255.07;;;7.14;100.00
46682;BME280;34101;53.430;-2.224;2022-11-20T04:36:42;154244.99;;;7.10;100.00
46682;BME280;34101;53.430;-2.224;2022-11-20T04:39:14;154257.17;;;7.15;100.00
46682;BME280;34101;53.430;-2.224;2022-11-20T04:41:43;154240.23;;;7.08;100.00
46682;BME280;34101;53.430;-2.224;2022-11-20T04:44:11;154209.25;;;6.96;100.00
46682;BME280;34101;53.430;-2.224;2022-11-20T04:46:41;154230.95;;;7.05;100.00
46682;BME280;34101;53.430;-2.224;2022-11-20T04:49:11;154196.43;;;6.91;100.00
46682;BME280;34101;53.430;-2.224;2022-11-20T04:51:38;154240.47;;;7.08;100.00
46682;BME280;34101;53.430;-2.224;2022-11-20T04:54:06;154229.98;;;7.04;100.00
46682;BME280;34101;53.430;-2.224;2022-11-20T04:56:33;154245.55;;;7.11;100.00
46682;BME280;34101;53.430;-2.224;2022-11-20T04:59:02;154250.47;;;7.12;100.00
46682;BME280;34101;53.430;-2.224;2022-11-20T05:01:29;154264.02;;;7.18;100.00
46682;BME280;34101;53.430;-2.224;2022-11-20T05:03:56;154269.11;;;7.20;100.00
46682;BME280;34101;53.430;-2.224;2022-11-20T05:06:24;154285.72;;;7.27;100.00
46682;BME280;34101;53.430;-2.224;2022-11-20T05:08:51;154283.87;;;7.26;100.00
46682;BME280;34101;53.430;-2.224;2022-11-20T05:11:20;154292.50;;;7.29;100.00
46682;BME280;34101;53.430;-2.224;2022-11-20T05:13:48;154290.97;;;7.29;100.00
46682;BME280;34101;53.430;-2.224;2022-11-20T05:16:17;154290.24;;;7.29;100.00
46682;BME280;34101;53.430;-2.224;2022-11-20T05:18:45;154311.14;;;7.37;100.00
46682;BME280;34101;53.430;-2.224;2022-11-20T05:21:13;154317.67;;;7.40;100.00
46682;BME280;34101;53.430;-2.224;2022-11-20T05:23:41;154318.88;;;7.40;100.00
46682;BME280;34101;53.430;-2.224;2022-11-20T05:26:13;154326.47;;;7.43;100.00
46682;BME280;34101;53.430;-2.224;2022-11-20T05:28:41;154310.98;;;7.37;100.00
46682;BME280;34101;53.430;-2.224;2022-11-20T05:31:10;154288.95;;;7.28;100.00
46682;BME280;34101;53.430;-2.224;2022-11-20T05:33:40;154295.73;;;7.31;100.00
46682;BME280;34101;53.430;-2.224;2022-11-20T05:36:08;154312.19;;;7.37;100.00
46682;BME280;34101;53.430;-2.224;2022-11-20T05:38:35;154342.60;;;7.50;100.00
46682;BME280;34101;53.430;-2.224;2022-11-20T05:41:04;154350.83;;;7.53;100.00
46682;BME280;34101;53.430;-2.224;2022-11-20T05:43:33;154366.65;;;7.59;100.00
46682;BME280;34101;53.430;-2.224;2022-11-20T05:45:59;154395.13;;;7.71;100.00
46682;BME280;34101;53.430;-2.224;2022-11-20T05:48:27;154346.56;;;7.51;100.00
46682;BME280;34101;53.430;-2.224;2022-11-20T05:50:56;154339.21;;;7.48;100.00
46682;BME280;34101;53.430;-2.224;2022-11-20T05:53:23;154365.60;;;7.59;100.00
46682;BME280;34101;53.430;-2.224;2022-11-20T05:55:57;154326.14;;;7.43;100.00
46682;BME280;34101;53.430;-2.224;2022-11-20T05:58:24;154298.15;;;7.32;100.00
46682;BME280;34101;53.430;-2.224;2022-11-20T06:00:51;154313.07;;;7.38;100.00
46682;BME280;34101;53.430;-2.224;2022-11-20T06:03:18;154289.11;;;7.28;100.00
46682;BME280;34101;53.430;-2.224;2022-11-20T06:05:46;154279.75;;;7.24;100.00
46682;BME280;34101;53.430;-2.224;2022-11-20T06:08:13;154278.87;;;7.24;100.00
46682;BME280;34101;53.430;-2.224;2022-11-20T06:10:40;154279.92;;;7.24;100.00
46682;BME280;34101;53.430;-2.224;2022-11-20T06:13:08;154291.78;;;7.29;100.00
46682;BME280;34101;53.430;-2.224;2022-11-20T06:15:35;154293.39;;;7.30;100.00
46682;BME280;34101;53.430;-2.224;2022-11-20T06:18:03;154290.89;;;7.29;100.00
46682;BME280;34101;53.430;-2.224;2022-11-20T06:20:30;154310.49;;;7.37;100.00
46682;BME280;34101;53.430;-2.224;2022-11-20T06:22:57;154328.89;;;7.44;100.00
46682;BME280;34101;53.430;-2.224;2022-11-20T06:25:25;154344.38;;;7.50;100.00
46682;BME280;34101;53.430;-2.224;2022-11-20T06:27:52;154364.79;;;7.59;100.00
46682;BME280;34101;53.430;-2.224;2022-11-20T06:30:20;154373.51;;;7.62;100.00
46682;BME280;34101;53.430;-2.224;2022-11-20T06:32:47;154357.21;;;7.56;100.00
46682;BME280;34101;53.430;-2.224;2022-11-20T06:35:15;154337.76;;;7.48;100.00
46682;BME280;34101;53.430;-2.224;2022-11-20T06:37:42;154326.55;;;7.43;100.00
46682;BME280;34101;53.430;-2.224;2022-11-20T06:40:10;154331.87;;;7.45;100.00
46682;BME280;34101;53.430;-2.224;2022-11-20T06:42:38;154275.56;;;7.23;100.00
46682;BME280;34101;53.430;-2.224;2022-11-20T06:45:06;154246.04;;;7.11;100.00
46682;BME280;34101;53.430;-2.224;2022-11-20T06:47:33;154232.65;;;7.05;100.00
46682;BME280;34101;53.430;-2.224;2022-11-20T06:50:01;154203.13;;;6.93;100.00
46682;BME280;34101;53.430;-2.224;2022-11-20T06:52:29;154189.90;;;6.88;100.00
46682;BME280;34101;53.430;-2.224;2022-11-20T06:54:56;154182.48;;;6.85;100.00
46682;BME280;34101;53.430;-2.224;2022-11-20T06:57:24;154172.80;;;6.81;100.00
46682;BME280;34101;53.430;-2.224;2022-11-20T06:59:51;154199.09;;;6.92;100.00
46682;BME280;34101;53.430;-2.224;2022-11-20T07:02:19;154224.58;;;7.02;100.00
46682;BME280;34101;53.430;-2.224;2022-11-20T07:04:46;154219.82;;;7.00;100.00
46682;BME280;34101;53.430;-2.224;2022-11-20T07:07:13;154201.67;;;6.93;100.00
46682;BME280;34101;53.430;-2.224;2022-11-20T07:09:40;154219.42;;;7.00;100.00
46682;BME280;34101;53.430;-2.224;2022-11-20T07:12:08;154250.39;;;7.12;100.00
46682;BME280;34101;53.430;-2.224;2022-11-20T07:14:35;154268.22;;;7.20;100.00
46682;BME280;34101;53.430;-2.224;2022-11-20T07:17:02;154295.97;;;7.31;100.00
46682;BME280;34101;53.430;-2.224;2022-11-20T07:19:30;154275.08;;;7.22;100.00
46682;BME280;34101;53.430;-2.224;2022-11-20T07:21:57;154300.81;;;7.33;100.00
46682;BME280;34101;53.430;-2.224;2022-11-20T07:24:25;154261.60;;;7.17;100.00
46682;BME280;34101;53.430;-2.224;2022-11-20T07:26:52;154262.73;;;7.17;100.00
46682;BME280;34101;53.430;-2.224;2022-11-20T07:29:19;154212.16;;;6.97;100.00
46682;BME280;34101;53.430;-2.224;2022-11-20T07:31:47;154244.42;;;7.10;100.00
46682;BME280;34101;53.430;-2.224;2022-11-20T07:34:14;154216.68;;;6.99;100.00
46682;BME280;34101;53.430;-2.224;2022-11-20T07:36:41;154233.13;;;7.05;100.00
46682;BME280;34101;53.430;-2.224;2022-11-20T07:39:09;154267.09;;;7.19;100.00
46682;BME280;34101;53.430;-2.224;2022-11-20T07:41:36;154297.34;;;7.31;100.00
46682;BME280;34101;53.430;-2.224;2022-11-20T07:44:04;154297.99;;;7.32;100.00
46682;BME280;34101;53.430;-2.224;2022-11-20T07:46:31;154332.84;;;7.46;100.00
46682;BME280;34101;53.430;-2.224;2022-11-20T07:48:58;154366.00;;;7.59;100.00
46682;BME280;34101;53.430;-2.224;2022-11-20T07:51:26;154378.67;;;7.64;100.00
46682;BME280;34101;53.430;-2.224;2022-11-20T07:53:53;154365.52;;;7.59;100.00
46682;BME280;34101;53.430;-2.224;2022-11-20T07:56:20;154358.66;;;7.56;100.00
46682;BME280;34101;53.430;-2.224;2022-11-20T07:58:47;154352.37;;;7.54;100.00
46682;BME280;34101;53.430;-2.224;2022-11-20T08:01:15;154352.53;;;7.54;100.00
46682;BME280;34101;53.430;-2.224;2022-11-20T08:03:42;154346.64;;;7.51;100.00
46682;BME280;34101;53.430;-2.224;2022-11-20T08:06:10;154343.73;;;7.50;100.00
46682;BME280;34101;53.430;-2.224;2022-11-20T08:08:37;154340.42;;;7.49;100.00
46682;BME280;34101;53.430;-2.224;2022-11-20T08:11:05;154353.41;;;7.54;100.00
46682;BME280;34101;53.430;-2.224;2022-11-20T08:13:32;154338.41;;;7.48;100.00
46682;BME280;34101;53.430;-2.224;2022-11-20T08:15:59;154341.23;;;7.49;100.00
46682;BME280;34101;53.430;-2.224;2022-11-20T08:18:27;154353.50;;;7.54;100.00
46682;BME280;34101;53.430;-2.224;2022-11-20T08:20:54;154345.18;;;7.51;100.00
46682;BME280;34101;53.430;-2.224;2022-11-20T08:23:23;154319.85;;;7.40;100.00
46682;BME280;34101;53.430;-2.224;2022-11-20T08:25:50;154315.57;;;7.39;100.00
46682;BME280;34101;53.430;-2.224;2022-11-20T08:28:17;154291.45;;;7.29;100.00
46682;BME280;34101;53.430;-2.224;2022-11-20T08:30:45;154290.16;;;7.29;100.00
46682;BME280;34101;53.430;-2.224;2022-11-20T08:33:12;154280.96;;;7.25;100.00
46682;BME280;34101;53.430;-2.224;2022-11-20T08:35:39;154267.33;;;7.19;100.00
46682;BME280;34101;53.430;-2.224;2022-11-20T08:38:07;154295.57;;;7.31;100.00
46682;BME280;34101;53.430;-2.224;2022-11-20T08:40:34;154311.38;;;7.37;100.00
46682;BME280;34101;53.430;-2.224;2022-11-20T08:43:01;154324.61;;;7.42;100.00
46682;BME280;34101;53.430;-2.224;2022-11-20T08:45:29;154337.84;;;7.48;100.00
46682;BME280;34101;53.430;-2.224;2022-11-20T08:48:00;154362.53;;;7.58;100.00
46682;BME280;34101;53.430;-2.224;2022-11-20T08:50:28;154356.00;;;7.55;100.00
46682;BME280;34101;53.430;-2.224;2022-11-20T08:53:02;154359.71;;;7.57;100.00
46682;BME280;34101;53.430;-2.224;2022-11-20T08:55:29;154360.43;;;7.57;100.00
46682;BME280;34101;53.430;-2.224;2022-11-20T08:57:56;154391.99;;;7.70;100.00
46682;BME280;34101;53.430;-2.224;2022-11-20T09:00:24;154417.97;;;7.80;100.00
46682;BME280;34101;53.430;-2.224;2022-11-20T09:02:52;154409.50;;;7.77;100.00
46682;BME280;34101;53.430;-2.224;2022-11-20T09:05:20;154438.87;;;7.89;100.00
46682;BME280;34101;53.430;-2.224;2022-11-20T09:07:47;154440.24;;;7.89;100.00
46682;BME280;34101;53.430;-2.224;2022-11-20T09:10:15;154411.84;;;7.78;100.00
46682;BME280;34101;53.430;-2.224;2022-11-20T09:12:42;154455.26;;;7.95;100.00
46682;BME280;34101;53.430;-2.224;2022-11-20T09:15:10;154424.67;;;7.83;100.00
46682;BME280;34101;53.430;-2.224;2022-11-20T09:17:38;154409.25;;;7.77;100.00
46682;BME280;34101;53.430;-2.224;2022-11-20T09:20:05;154445.57;;;7.91;100.00
46682;BME280;34101;53.430;-2.224;2022-11-20T09:22:33;154422.17;;;7.82;100.00
46682;BME280;34101;53.430;-2.224;2022-11-20T09:25:01;154456.79;;;7.96;100.00
46682;BME280;34101;53.430;-2.224;2022-11-20T09:27:28;154492.95;;;8.10;100.00
46682;BME280;34101;53.430;-2.224;2022-11-20T09:29:55;154492.06;;;8.10;100.00
46682;BME280;34101;53.430;-2.224;2022-11-20T09:32:23;154651.02;;;8.74;100.00
46682;BME280;34101;53.430;-2.224;2022-11-20T09:34:50;154793.74;;;9.32;100.00
46682;BME280;34101;53.430;-2.224;2022-11-20T09:37:17;154802.62;;;9.35;100.00
46682;BME280;34101;53.430;-2.224;2022-11-20T09:39:45;154821.61;;;9.43;100.00
46682;BME280;34101;53.430;-2.224;2022-11-20T09:42:21;154846.81;;;9.53;100.00
46682;BME280;34101;53.430;-2.224;2022-11-20T09:45:06;154836.07;;;9.49;100.00
46682;BME280;34101;53.430;-2.224;2022-11-20T09:47:47;154749.55;;;9.14;100.00
46682;BME280;34101;53.430;-2.224;2022-11-20T09:50:25;154747.86;;;9.13;100.00
46682;BME280;34101;53.430;-2.224;2022-11-20T09:53:10;154870.48;;;9.63;100.00
46682;BME280;34101;53.430;-2.224;2022-11-20T09:55:39;154980.30;;;10.07;100.00
46682;BME280;34101;53.430;-2.224;2022-11-20T09:58:12;155100.33;;;10.55;100.00
46682;BME280;34101;53.430;-2.224;2022-11-20T10:00:43;155204.31;;;10.97;100.00
46682;BME280;34101;53.430;-2.224;2022-11-20T10:03:16;155215.87;;;11.02;100.00
46682;BME280;34101;53.430;-2.224;2022-11-20T10:05:49;155328.62;;;11.47;100.00
46682;BME280;34101;53.430;-2.224;2022-11-20T10:08:21;155339.62;;;11.52;100.00
46682;BME280;34101;53.430;-2.224;2022-11-20T10:10:53;155430.55;;;11.88;100.00
46682;BME280;34101;53.430;-2.224;2022-11-20T10:13:35;155436.38;;;11.90;100.00
46682;BME280;34101;53.430;-2.224;2022-11-20T10:16:18;155434.68;;;11.90;100.00
46682;BME280;34101;53.430;-2.224;2022-11-20T10:19:01;155355.39;;;11.58;100.00
46682;BME280;34101;53.430;-2.224;2022-11-20T10:21:36;155427.48;;;11.87;100.00
46682;BME280;34101;53.430;-2.224;2022-11-20T10:24:22;155337.35;;;11.51;100.00
46682;BME280;34101;53.430;-2.224;2022-11-20T10:26:58;155436.70;;;11.91;100.00
46682;BME280;34101;53.430;-2.224;2022-11-20T10:29:33;155464.86;;;12.02;100.00
46682;BME280;34101;53.430;-2.224;2022-11-20T10:32:03;155497.95;;;12.15;100.00
46682;BME280;34101;53.430;-2.224;2022-11-20T10:34:38;155432.25;;;11.89;100.00
46682;BME280;34101;53.430;-2.224;2022-11-20T10:37:14;155365.42;;;11.62;100.00
46682;BME280;34101;53.430;-2.224;2022-11-20T10:39:50;155536.07;;;12.31;100.00
46682;BME280;34101;53.430;-2.224;2022-11-20T10:42:26;155472.79;;;12.05;100.00
46682;BME280;34101;53.430;-2.224;2022-11-20T10:45:01;155462.92;;;12.01;100.00
46682;BME280;34101;53.430;-2.224;2022-11-20T10:47:31;155484.12;;;12.10;100.00
46682;BME280;34101;53.430;-2.224;2022-11-20T10:50:03;155587.54;;;12.51;100.00
46682;BME280;34101;53.430;-2.224;2022-11-20T10:52:37;155678.61;;;12.88;100.00
46682;BME280;34101;53.430;-2.224;2022-11-20T10:55:17;155610.94;;;12.61;100.00
46682;BME280;34101;53.430;-2.224;2022-11-20T10:57:54;155591.67;;;12.53;100.00
46682;BME280;34101;53.430;-2.224;2022-11-20T11:00:24;155590.54;;;12.53;100.00
46682;BME280;34101;53.430;-2.224;2022-11-20T11:02:53;155548.86;;;12.36;100.00
46682;BME280;34101;53.430;-2.224;2022-11-20T11:05:30;155452.96;;;11.97;100.00
46682;BME280;34101;53.430;-2.224;2022-11-20T11:07:59;155531.13;;;12.29;100.00
46682;BME280;34101;53.430;-2.224;2022-11-20T11:10:32;155573.14;;;12.46;100.00
46682;BME280;34101;53.430;-2.224;2022-11-20T11:13:02;155472.38;;;12.05;100.00
46682;BME280;34101;53.430;-2.224;2022-11-20T11:15:36;155496.58;;;12.15;100.00
46682;BME280;34101;53.430;-2.224;2022-11-20T11:18:05;155575.81;;;12.47;100.00
46682;BME280;34101;53.430;-2.224;2022-11-20T11:20:35;155541.01;;;12.33;100.00
46682;BME280;34101;53.430;-2.224;2022-11-20T11:23:03;155481.61;;;12.09;100.00
46682;BME280;34101;53.430;-2.224;2022-11-20T11:25:32;155496.50;;;12.15;100.00
46682;BME280;34101;53.430;-2.224;2022-11-20T11:28:01;155425.21;;;11.86;100.00
46682;BME280;34101;53.430;-2.224;2022-11-20T11:30:41;155540.52;;;12.32;100.00
46682;BME280;34101;53.430;-2.224;2022-11-20T11:33:11;155585.04;;;12.50;100.00
46682;BME280;34101;53.430;-2.224;2022-11-20T11:35:44;155608.59;;;12.60;100.00
46682;BME280;34101;53.430;-2.224;2022-11-20T11:38:16;155641.94;;;12.73;100.00
46682;BME280;34101;53.430;-2.224;2022-11-20T11:40:43;155637.97;;;12.72;100.00
46682;BME280;34101;53.430;-2.224;2022-11-20T11:43:18;155592.08;;;12.53;100.00
46682;BME280;34101;53.430;-2.224;2022-11-20T11:45:53;155566.58;;;12.43;100.00
46682;BME280;34101;53.430;-2.224;2022-11-20T11:48:21;155507.34;;;12.19;100.00
46682;BME280;34101;53.430;-2.224;2022-11-20T11:50:49;155515.03;;;12.22;100.00
46682;BME280;34101;53.430;-2.224;2022-11-20T11:53:19;155519.80;;;12.24;100.00
46682;BME280;34101;53.430;-2.224;2022-11-20T11:55:51;155490.91;;;12.12;100.00
46682;BME280;34101;53.430;-2.224;2022-11-20T11:58:34;155501.11;;;12.17;100.00
46682;BME280;34101;53.430;-2.224;2022-11-20T12:01:17;155478.21;;;12.07;100.00
46682;BME280;34101;53.430;-2.224;2022-11-20T12:03:55;155410.24;;;11.80;100.00
46682;BME280;34101;53.430;-2.224;2022-11-20T12:06:26;155454.10;;;11.98;100.00
46682;BME280;34101;53.430;-2.224;2022-11-20T12:09:01;155556.30;;;12.39;100.00
46682;BME280;34101;53.430;-2.224;2022-11-20T12:11:34;155582.85;;;12.49;100.00
46682;BME280;34101;53.430;-2.224;2022-11-20T12:14:14;155579.53;;;12.48;100.00
46682;BME280;34101;53.430;-2.224;2022-11-20T12:16:46;155402.31;;;11.77;100.00
46682;BME280;34101;53.430;-2.224;2022-11-20T12:19:14;155346.49;;;11.54;100.00
46682;BME280;34101;53.430;-2.224;2022-11-20T12:21:54;155276.12;;;11.26;100.00
46682;BME280;34101;53.430;-2.224;2022-11-20T12:24:37;155248.14;;;11.15;100.00
46682;BME280;34101;53.430;-2.224;2022-11-20T12:27:27;155149.65;;;10.75;100.00
46682;BME280;34101;53.430;-2.224;2022-11-20T12:30:02;155148.28;;;10.75;100.00
46682;BME280;34101;53.430;-2.224;2022-11-20T12:32:58;155147.63;;;10.74;100.00
46682;BME280;34101;53.430;-2.224;2022-11-20T12:35:44;155191.05;;;10.92;100.00
46682;BME280;34101;53.430;-2.224;2022-11-20T12:38:34;155145.77;;;10.73;100.00
46682;BME280;34101;53.430;-2.224;2022-11-20T12:41:05;155102.84;;;10.56;100.00
46682;BME280;34101;53.430;-2.224;2022-11-20T12:43:43;155077.05;;;10.46;100.00
46682;BME280;34101;53.430;-2.224;2022-11-20T12:46:22;155115.53;;;10.61;100.00
46682;BME280;34101;53.430;-2.224;2022-11-20T12:49:08;155091.85;;;10.52;100.00
46682;BME280;34101;53.430;-2.224;2022-11-20T12:51:52;155078.99;;;10.47;100.00